TimeCST,TemperatureF,Dew PointF,Humidity,Sea Level PressureIn,VisibilityMPH,Wind Direction,Wind SpeedMPH,Gust SpeedMPH,PrecipitationIn,Events,Conditions,WindDirDegrees,DateUTC
12:08 AM,35.6,28.4,75,30.09,2.5,Calm,Calm,-,0.00,Snow,Light Snow,0,2013-02-03 06:08:00
12:17 AM,33.8,28.4,81,30.09,1.0,Calm,Calm,-,0.00,Snow,Light Snow,0,2013-02-03 06:17:00
12:34 AM,33.8,30.2,87,30.08,2.5,Calm,Calm,-,0.01,Snow,Light Snow,0,2013-02-03 06:34:00
12:52 AM,33.1,30.0,89,30.08,4.0,South,3.5,-,0.01,Snow,Light Snow,180,2013-02-03 06:52:00
12:57 AM,33.8,30.2,87,30.07,1.8,South,3.5,-,0.01,Snow,Light Snow,180,2013-02-03 06:57:00
1:04 AM,33.8,30.2,87,30.06,2.0,South,4.6,-,0.01,Snow,Light Snow,190,2013-02-03 07:04:00
1:07 AM,33.8,30.2,87,30.06,3.0,South,3.5,-,0.01,Snow,Light Snow,170,2013-02-03 07:07:00
1:27 AM,33.8,30.2,87,30.06,2.5,Calm,Calm,-,0.01,Snow,Light Snow,0,2013-02-03 07:27:00
1:36 AM,33.8,30.2,87,30.04,2.0,East,3.5,-,0.01,Snow,Light Snow,80,2013-02-03 07:36:00
1:41 AM,33.8,30.2,87,30.05,3.0,East,3.5,-,0.01,Snow,Light Snow,100,2013-02-03 07:41:00
1:52 AM,33.1,30.0,89,30.04,6.0,SSE,9.2,-,0.01,,Overcast,150,2013-02-03 07:52:00
2:52 AM,32.0,28.9,88,30.04,4.0,Calm,Calm,-,N/A,,Mostly Cloudy,0,2013-02-03 08:52:00
2:57 AM,32.0,28.4,87,30.03,1.8,Calm,Calm,-,N/A,,Scattered Clouds,0,2013-02-03 08:57:00
3:16 AM,32.0,28.4,87,30.03,0.5,Calm,Calm,-,N/A,Fog,Fog,0,2013-02-03 09:16:00
3:24 AM,30.2,28.4,93,30.02,0.8,Variable,4.6,-,N/A,,Mostly Cloudy,0,2013-02-03 09:24:00
3:30 AM,30.2,28.4,93,30.02,2.0,Calm,Calm,-,N/A,,Overcast,0,2013-02-03 09:30:00
3:44 AM,30.2,28.4,93,30.02,1.8,Calm,Calm,-,N/A,,Overcast,0,2013-02-03 09:44:00
3:49 AM,32.0,28.4,87,30.02,0.5,Calm,Calm,-,N/A,Fog,Fog,0,2013-02-03 09:49:00
3:52 AM,32.0,28.9,88,30.03,0.2,Calm,Calm,-,N/A,Fog,Fog,0,2013-02-03 09:52:00
4:26 AM,30.2,26.6,86,30.03,0.2,WSW,3.5,-,N/A,Fog,Light Freezing Fog,250,2013-02-03 10:26:00
4:52 AM,27.0,23.0,85,30.03,0.2,Calm,Calm,-,N/A,Fog,Light Freezing Fog,0,2013-02-03 10:52:00
5:19 AM,28.4,23.0,80,30.03,1.0,West,4.6,-,N/A,,Haze,270,2013-02-03 11:19:00
5:23 AM,30.2,24.8,80,30.03,4.0,West,6.9,-,N/A,,Haze,280,2013-02-03 11:23:00
6:52 AM,33.1,27.0,78,30.07,10.0,WNW,10.4,-,N/A,,Clear,300,2013-02-03 12:52:00
7:52 AM,34.0,27.0,75,30.08,10.0,WNW,10.4,-,N/A,,Scattered Clouds,300,2013-02-03 13:52:00
8:38 AM,37.4,26.6,65,30.10,10.0,WNW,11.5,18.4,0.01,,Mostly Cloudy,300,2013-02-03 14:38:00
8:52 AM,37.0,27.0,67,30.11,10.0,WNW,12.7,20.7,0.01,,Scattered Clouds,300,2013-02-03 14:52:00
9:52 AM,37.0,26.1,65,30.14,10.0,NW,15.0,24.2,N/A,,Mostly Cloudy,320,2013-02-03 15:52:00
10:39 AM,37.4,24.8,60,30.16,10.0,WNW,18.4,24.2,N/A,,Overcast,300,2013-02-03 16:39:00
10:49 AM,37.4,24.8,60,30.17,10.0,WNW,18.4,24.2,N/A,,Overcast,300,2013-02-03 16:49:00
10:52 AM,37.0,24.1,59,30.18,10.0,WNW,15.0,24.2,N/A,,Overcast,300,2013-02-03 16:52:00
11:52 AM,37.0,21.9,54,30.19,10.0,NW,13.8,28.8,N/A,,Overcast,310,2013-02-03 17:52:00
12:52 PM,37.0,21.9,54,30.20,10.0,WNW,15.0,23.0,N/A,,Overcast,300,2013-02-03 18:52:00
1:52 PM,37.0,19.9,50,30.19,10.0,NNW,13.8,20.7,N/A,,Partly Cloudy,340,2013-02-03 19:52:00
2:52 PM,37.9,19.9,48,30.19,10.0,NNW,13.8,-,N/A,,Partly Cloudy,340,2013-02-03 20:52:00
3:52 PM,37.9,21.0,51,30.19,10.0,North,11.5,-,N/A,,Clear,350,2013-02-03 21:52:00
4:52 PM,36.0,21.0,55,30.18,10.0,North,4.6,-,N/A,,Clear,10,2013-02-03 22:52:00
5:52 PM,33.1,21.0,61,30.18,10.0,Calm,Calm,-,N/A,,Clear,0,2013-02-03 23:52:00
6:52 PM,30.9,23.0,72,30.19,10.0,Calm,Calm,-,N/A,,Clear,0,2013-02-04 00:52:00
7:52 PM,30.9,19.9,64,30.17,10.0,SE,3.5,-,N/A,,Clear,130,2013-02-04 01:52:00
8:52 PM,30.0,19.9,66,30.14,10.0,SE,8.1,-,N/A,,Clear,130,2013-02-04 02:52:00
9:52 PM,28.9,18.0,64,30.13,10.0,SSE,4.6,-,N/A,,Clear,160,2013-02-04 03:52:00
10:52 PM,28.9,19.0,67,30.11,10.0,SE,4.6,-,N/A,,Clear,130,2013-02-04 04:52:00
11:52 PM,28.9,19.0,67,30.08,10.0,SE,4.6,-,N/A,,Clear,130,2013-02-04 05:52:00